createdAt,value
2022-07-25T00:00:08.846Z,0.0
2022-07-25T00:05:08.082Z,0.0
2022-07-25T00:10:07.775Z,0.0
2022-07-25T00:15:08.447Z,0.0
2022-07-25T00:20:08.149Z,0.0
2022-07-25T00:25:07.834Z,0.0
2022-07-25T00:30:08.530Z,0.0
2022-07-25T00:35:08.214Z,0.0
2022-07-25T00:40:07.942Z,0.0
2022-07-25T00:45:08.648Z,0.0
2022-07-25T00:50:08.414Z,0.0
2022-07-25T00:55:08.354Z,0.0
2022-07-25T01:00:08.060Z,0.0
2022-07-25T01:05:07.786Z,0.0
2022-07-25T01:10:08.135Z,0.0
2022-07-25T01:15:07.842Z,0.0
2022-07-25T01:20:08.549Z,0.0
2022-07-25T01:25:08.262Z,0.0
2022-07-25T01:30:08.032Z,0.0
2022-07-25T01:35:07.723Z,0.0
2022-07-25T01:40:08.436Z,0.0
2022-07-25T01:45:44.616Z,0.0
2022-07-25T01:50:08.296Z,0.0
2022-07-25T01:55:08.273Z,0.0
2022-07-25T02:00:08.117Z,0.0
2022-07-25T02:05:08.631Z,0.0
2022-07-25T02:10:08.414Z,0.0
2022-07-25T02:15:08.156Z,0.0
2022-07-25T02:20:07.895Z,0.0
2022-07-25T02:25:08.630Z,0.0
2022-07-25T02:30:08.346Z,0.0
2022-07-25T02:35:12.933Z,0.0
2022-07-25T02:40:08.184Z,0.0
2022-07-25T02:45:07.868Z,0.0
2022-07-25T02:50:08.605Z,0.0
2022-07-25T02:55:09.830Z,0.0
2022-07-25T03:00:07.750Z,0.0
2022-07-25T03:05:08.458Z,0.0
2022-07-25T03:10:10.822Z,0.0
2022-07-25T03:15:08.153Z,0.0
2022-07-25T03:20:07.862Z,0.0
2022-07-25T03:25:15.919Z,0.0
2022-07-25T03:30:08.358Z,0.0
2022-07-25T03:35:08.030Z,0.0
2022-07-25T03:40:07.758Z,0.0
2022-07-25T03:45:08.462Z,0.0
2022-07-25T03:50:08.175Z,0.0
2022-07-25T03:55:07.902Z,0.0
2022-07-25T04:00:08.611Z,0.0
2022-07-25T04:05:02.461Z,0.0
2022-07-25T04:10:02.288Z,0.0
2022-07-25T04:15:02.170Z,0.0
2022-07-25T04:20:02.104Z,0.0
2022-07-25T04:25:02.397Z,0.0
2022-07-25T04:30:02.384Z,0.0
2022-07-25T04:35:02.411Z,0.0
2022-07-25T04:40:02.384Z,0.0
2022-07-25T04:45:02.218Z,0.0
2022-07-25T04:50:02.011Z,0.0
2022-07-25T04:55:01.733Z,0.0
2022-07-25T05:00:02.556Z,0.0
2022-07-25T05:05:03.151Z,0.0
2022-07-25T05:10:02.184Z,0.0
2022-07-25T05:15:02.009Z,0.0
2022-07-25T05:20:01.927Z,0.0
2022-07-25T05:25:02.810Z,0.0
2022-07-25T05:30:02.712Z,0.0
2022-07-25T05:35:02.750Z,0.0
2022-07-25T05:40:02.706Z,0.0
2022-07-25T05:45:02.609Z,0.0
2022-07-25T05:50:02.635Z,0.0
2022-07-25T05:55:02.592Z,0.0
2022-07-25T06:00:02.409Z,0.0
2022-07-25T06:05:02.282Z,0.0
2022-07-25T06:10:02.023Z,0.0
2022-07-25T06:15:01.771Z,0.0
2022-07-25T06:20:02.653Z,0.0
2022-07-25T06:25:02.455Z,0.0
2022-07-25T06:30:02.346Z,0.0
2022-07-25T06:35:02.107Z,2.0
2022-07-25T06:40:02.013Z,1.8
2022-07-25T06:45:01.769Z,1.8
2022-07-25T06:50:02.580Z,2.0
2022-07-25T06:55:02.571Z,2.0
2022-07-25T07:00:02.381Z,1.0
2022-07-25T07:05:02.132Z,1.0
2022-07-25T07:10:02.019Z,2.4
2022-07-25T07:15:01.785Z,2.4
2022-07-25T07:20:02.640Z,1.7
2022-07-25T07:25:02.571Z,1.7
2022-07-25T07:30:02.468Z,3.1
2022-07-25T07:35:02.226Z,3.1
2022-07-25T07:40:02.114Z,1.3
2022-07-25T07:45:01.896Z,1.3
2022-07-25T07:50:02.747Z,0.0
2022-07-25T07:55:12.579Z,0.0
2022-07-25T08:00:02.436Z,0.0
2022-07-25T08:05:02.348Z,0.0
2022-07-25T08:10:02.274Z,0.0
2022-07-25T08:15:02.311Z,0.0
2022-07-25T08:20:20.949Z,1.9
2022-07-25T08:25:02.699Z,1.9
2022-07-25T08:30:02.642Z,1.6
2022-07-25T08:35:02.549Z,1.6
2022-07-25T08:40:02.487Z,1.3
2022-07-25T08:45:02.273Z,1.4
2022-07-25T08:50:04.387Z,1.4
2022-07-25T08:55:02.565Z,1.6
2022-07-25T09:00:02.430Z,1.6
2022-07-25T09:05:02.283Z,1.6
2022-07-25T09:10:02.143Z,1.6
2022-07-25T09:15:02.171Z,0.8
2022-07-25T09:20:02.117Z,0.8
2022-07-25T09:25:01.919Z,0.0
2022-07-25T09:30:02.795Z,0.0
2022-07-25T09:35:02.654Z,1.4
2022-07-25T09:40:02.453Z,1.4
2022-07-25T09:45:02.386Z,0.0
2022-07-25T09:50:02.358Z,0.0
2022-07-25T09:55:02.130Z,0.0
2022-07-25T10:00:01.959Z,0.0
2022-07-25T10:05:01.677Z,1.9
2022-07-25T10:10:02.637Z,1.9
2022-07-25T10:15:02.469Z,1.5
2022-07-25T10:20:02.324Z,1.5
2022-07-25T10:25:02.176Z,1.4
2022-07-25T10:30:01.946Z,1.4
2022-07-25T10:35:01.814Z,1.7
2022-07-25T10:40:02.620Z,1.6
2022-07-25T10:45:02.562Z,1.6
2022-07-25T10:50:29.804Z,0.0
2022-07-25T10:55:02.229Z,0.0
2022-07-25T11:00:02.184Z,2.2
2022-07-25T11:05:02.145Z,2.2
2022-07-25T11:10:02.178Z,1.6
2022-07-25T11:15:02.033Z,2.4
2022-07-25T11:20:12.001Z,2.4
2022-07-25T11:25:01.849Z,2.8
2022-07-25T11:30:02.729Z,2.8
2022-07-25T11:35:02.524Z,1.2
2022-07-25T11:40:02.774Z,1.2
2022-07-25T11:45:02.570Z,3.2
2022-07-25T11:50:02.404Z,3.2
2022-07-25T11:55:02.220Z,1.9
2022-07-25T12:00:02.155Z,1.9
2022-07-25T12:05:02.387Z,2.2
2022-07-25T12:10:02.548Z,2.2
2022-07-25T12:15:02.411Z,2.5
2022-07-25T12:20:02.238Z,2.5
2022-07-25T12:25:02.015Z,3.2
2022-07-25T12:30:01.892Z,2.8
2022-07-25T12:35:02.685Z,2.8
2022-07-25T12:40:02.591Z,1.7
2022-07-25T12:45:02.347Z,1.7
2022-07-25T12:50:02.240Z,2.6
2022-07-25T12:55:02.223Z,2.9
2022-07-25T13:00:02.083Z,2.9
2022-07-25T13:05:01.888Z,4.2
2022-07-25T13:10:03.172Z,4.2
2022-07-25T13:15:01.933Z,1.5
2022-07-25T13:20:02.813Z,1.5
2022-07-25T13:25:02.764Z,1.4
2022-07-25T13:30:02.666Z,1.4
2022-07-25T13:35:02.632Z,1.7
2022-07-25T13:40:02.626Z,2.5
2022-07-25T13:45:02.540Z,2.5
2022-07-25T13:50:02.678Z,2.8
2022-07-25T13:55:02.656Z,2.8
2022-07-25T14:00:02.547Z,5.1
2022-07-25T14:05:04.325Z,3.8
2022-07-25T14:10:02.346Z,2.8
2022-07-25T14:15:02.136Z,2.1
2022-07-25T14:20:01.966Z,2.8
2022-07-25T14:25:02.673Z,2.0
2022-07-25T14:30:02.433Z,2.0
2022-07-25T14:35:02.271Z,1.3
2022-07-25T14:40:02.219Z,1.5
2022-07-25T14:45:02.627Z,1.5
2022-07-25T14:50:02.478Z,3.8
2022-07-25T14:55:02.314Z,3.8
2022-07-25T15:00:02.156Z,3.4
2022-07-25T15:05:02.010Z,3.7
2022-07-25T15:10:01.907Z,3.7
2022-07-25T15:15:01.722Z,3.3
2022-07-25T15:20:02.569Z,3.3
2022-07-25T15:25:45.388Z,3.2
2022-07-25T15:30:02.652Z,1.8
2022-07-25T15:35:02.501Z,1.8
2022-07-25T15:40:02.324Z,3.3
2022-07-25T15:45:31.399Z,1.7
2022-07-25T15:50:02.214Z,1.7
2022-07-25T15:55:02.218Z,3.0
2022-07-25T16:00:04.990Z,3.0
2022-07-25T16:05:01.905Z,2.6
2022-07-25T16:10:02.816Z,2.6
2022-07-25T16:15:02.727Z,3.7
2022-07-25T16:20:02.754Z,2.2
2022-07-25T16:25:02.695Z,2.2
2022-07-25T16:30:02.614Z,2.2
2022-07-25T16:35:02.557Z,2.9
2022-07-25T16:40:02.380Z,3.7
2022-07-25T16:45:02.267Z,3.7
2022-07-25T16:50:02.088Z,1.8
2022-07-25T16:55:01.885Z,1.8
2022-07-25T17:00:02.133Z,2.7
2022-07-25T17:05:02.020Z,2.7
2022-07-25T17:10:02.036Z,2.5
2022-07-25T17:15:01.778Z,2.5
2022-07-25T17:20:02.554Z,2.6
2022-07-25T17:25:02.378Z,2.6
2022-07-25T17:30:03.044Z,1.6
2022-07-25T17:35:01.858Z,1.6
2022-07-25T17:40:02.664Z,1.8
2022-07-25T17:45:02.538Z,1.8
2022-07-25T17:50:02.352Z,1.9
2022-07-25T17:55:02.158Z,1.9
2022-07-25T18:00:02.307Z,1.4
2022-07-25T18:05:01.987Z,1.4
2022-07-25T18:10:01.827Z,3.1
2022-07-25T18:15:02.633Z,3.1
2022-07-25T18:20:02.454Z,1.4
2022-07-25T18:25:02.304Z,1.4
2022-07-25T18:30:02.118Z,3.3
2022-07-25T18:35:01.929Z,3.3
2022-07-25T18:40:02.691Z,2.1
2022-07-25T18:45:02.478Z,2.1
2022-07-25T18:50:02.324Z,1.7
2022-07-25T18:55:02.293Z,1.7
2022-07-25T19:00:03.379Z,2.2
2022-07-25T19:05:02.804Z,2.2
2022-07-25T19:10:02.890Z,3.6
2022-07-25T19:15:02.837Z,3.6
2022-07-25T19:20:02.751Z,1.4
2022-07-25T19:25:02.785Z,1.4
2022-07-25T19:30:02.599Z,2.9
2022-07-25T19:35:02.429Z,2.9
2022-07-25T19:40:02.273Z,2.7
2022-07-25T19:45:02.129Z,2.7
2022-07-25T19:50:02.001Z,1.2
2022-07-25T19:55:01.884Z,1.9
2022-07-25T20:00:02.709Z,1.7
2022-07-25T20:05:02.550Z,1.7
2022-07-25T20:10:02.563Z,0.0
2022-07-25T20:15:01.763Z,0.0
2022-07-25T20:20:02.565Z,2.4
2022-07-25T20:25:02.363Z,2.4
2022-07-25T20:30:02.146Z,1.2
2022-07-25T20:35:14.789Z,1.2
2022-07-25T20:40:08.728Z,1.4
2022-07-25T20:45:08.530Z,1.4
2022-07-25T20:50:10.719Z,0.0
2022-07-25T20:55:08.716Z,0.0
2022-07-25T21:00:08.426Z,1.4
2022-07-25T21:05:08.138Z,1.4
2022-07-25T21:10:07.875Z,2.8
2022-07-25T21:15:08.597Z,2.8
2022-07-25T21:20:08.323Z,1.5
2022-07-25T21:25:08.032Z,1.5
2022-07-25T21:30:07.734Z,2.9
2022-07-25T21:35:08.476Z,2.9
2022-07-25T21:40:08.218Z,2.8
2022-07-25T21:45:07.894Z,2.8
2022-07-25T21:50:08.611Z,2.8
2022-07-25T21:55:08.295Z,2.8
2022-07-25T22:00:08.054Z,2.9
2022-07-25T22:05:07.762Z,2.9
2022-07-25T22:10:08.501Z,2.6
2022-07-25T22:15:08.150Z,2.6
2022-07-25T22:20:07.892Z,2.1
2022-07-25T22:25:08.620Z,2.1
2022-07-25T22:30:08.320Z,1.5
2022-07-25T22:35:08.295Z,1.5
2022-07-25T22:40:08.017Z,3.0
2022-07-25T22:45:07.698Z,3.0
2022-07-25T22:50:08.400Z,1.1
2022-07-25T22:55:08.105Z,1.1
2022-07-25T23:00:56.561Z,2.3
2022-07-25T23:05:08.437Z,2.3
2022-07-25T23:10:08.174Z,1.0
2022-07-25T23:15:07.870Z,1.0
2022-07-25T23:20:08.579Z,0.0
2022-07-25T23:25:08.283Z,0.0
2022-07-25T23:30:07.991Z,1.0
2022-07-25T23:35:07.725Z,1.0
2022-07-25T23:40:08.462Z,1.6
2022-07-25T23:45:08.183Z,1.6
2022-07-25T23:50:07.923Z,0.0
2022-07-25T23:55:08.610Z,0.0
